createdAt,value
2022-10-02T00:00:23.701Z,48.30
2022-10-02T00:01:23.745Z,47.13
2022-10-02T00:02:23.702Z,48.31
2022-10-02T00:03:23.754Z,47.16
2022-10-02T00:04:23.760Z,47.26
2022-10-02T00:05:23.689Z,48.18
2022-10-02T00:06:23.709Z,47.27
2022-10-02T00:07:23.679Z,47.04
2022-10-02T00:08:24.393Z,47.10
2022-10-02T00:09:24.682Z,48.45
2022-10-02T00:10:23.673Z,49.38
2022-10-02T00:11:23.669Z,47.83
2022-10-02T00:12:23.650Z,47.11
2022-10-02T00:13:24.621Z,47.29
2022-10-02T00:14:23.631Z,47.07
2022-10-02T00:15:23.674Z,47.03
2022-10-02T00:16:23.700Z,48.69
2022-10-02T00:17:23.617Z,46.62
2022-10-02T00:18:23.617Z,47.83
2022-10-02T00:19:23.618Z,46.80
2022-10-02T00:20:23.622Z,46.58
2022-10-02T00:21:23.620Z,46.29
2022-10-02T00:22:23.589Z,46.26
2022-10-02T00:23:23.621Z,47.87
2022-10-02T00:24:23.594Z,47.13
2022-10-02T00:25:23.577Z,46.59
2022-10-02T00:26:23.585Z,47.27
2022-10-02T00:27:23.595Z,48.20
2022-10-02T00:28:23.628Z,49.63
2022-10-02T00:29:23.573Z,46.71
2022-10-02T00:30:23.569Z,47.02
2022-10-02T00:31:23.665Z,47.72
2022-10-02T00:32:23.586Z,49.08
2022-10-02T00:33:23.548Z,46.74
2022-10-02T00:34:23.551Z,46.73
2022-10-02T00:35:23.528Z,46.74
2022-10-02T00:36:23.532Z,46.71
2022-10-02T00:37:23.572Z,47.96
2022-10-02T00:38:23.569Z,47.59
2022-10-02T00:39:23.513Z,46.73
2022-10-02T00:40:23.514Z,46.75
2022-10-02T00:41:23.575Z,47.20
2022-10-02T00:42:23.490Z,46.59
2022-10-02T00:43:23.519Z,48.35
2022-10-02T00:44:23.490Z,47.81
2022-10-02T00:45:23.519Z,47.74
2022-10-02T00:46:23.469Z,47.46
2022-10-02T00:47:23.478Z,50.75
2022-10-02T00:48:23.502Z,48.33
2022-10-02T00:49:23.489Z,48.79
2022-10-02T00:50:23.477Z,53.93
2022-10-02T00:51:23.484Z,47.74
2022-10-02T00:52:23.587Z,47.54
2022-10-02T00:53:23.456Z,46.77
2022-10-02T00:54:23.473Z,47.51
2022-10-02T00:55:23.455Z,48.14
2022-10-02T00:56:23.431Z,51.51
2022-10-02T00:57:23.436Z,46.85
2022-10-02T00:58:23.425Z,47.59
2022-10-02T00:59:23.434Z,46.39
2022-10-02T01:00:23.399Z,46.46
2022-10-02T01:01:23.540Z,48.38
2022-10-02T01:02:23.467Z,46.63
2022-10-02T01:03:23.410Z,47.81
2022-10-02T01:04:23.387Z,48.86
2022-10-02T01:05:23.400Z,47.11
2022-10-02T01:06:23.386Z,46.80
2022-10-02T01:07:23.389Z,49.11
2022-10-02T01:08:23.411Z,50.29
2022-10-02T01:09:23.379Z,49.71
2022-10-02T01:10:23.405Z,47.52
2022-10-02T01:11:23.369Z,46.63
2022-10-02T01:12:23.362Z,46.56
2022-10-02T01:13:23.357Z,46.49
2022-10-02T01:14:23.349Z,46.48
2022-10-02T01:15:23.379Z,46.58
2022-10-02T01:16:23.373Z,46.60
2022-10-02T01:17:23.336Z,46.63
2022-10-02T01:18:23.342Z,48.45
2022-10-02T01:19:23.338Z,46.67
2022-10-02T01:20:23.329Z,48.53
2022-10-02T01:21:23.350Z,49.11
2022-10-02T01:22:23.308Z,47.40
2022-10-02T01:23:23.350Z,46.78
2022-10-02T01:24:23.427Z,46.80
2022-10-02T01:25:23.304Z,46.93
2022-10-02T01:26:23.277Z,47.00
2022-10-02T01:27:23.290Z,51.59
2022-10-02T01:28:23.372Z,46.90
2022-10-02T01:29:23.293Z,47.11
2022-10-02T01:30:23.269Z,47.69
2022-10-02T01:31:23.329Z,46.98
2022-10-02T01:32:23.255Z,46.90
2022-10-02T01:33:23.364Z,46.99
2022-10-02T01:34:23.237Z,47.89
2022-10-02T01:35:23.283Z,46.99
2022-10-02T01:36:24.104Z,47.86
2022-10-02T01:37:23.227Z,47.20
2022-10-02T01:38:23.251Z,46.99
2022-10-02T01:39:23.201Z,47.02
2022-10-02T01:40:23.255Z,47.09
2022-10-02T01:41:23.205Z,48.72
2022-10-02T01:42:23.237Z,47.22
2022-10-02T01:43:24.242Z,48.77
2022-10-02T01:44:23.220Z,52.79
2022-10-02T01:45:23.232Z,47.25
2022-10-02T01:46:23.186Z,47.26
2022-10-02T01:47:23.180Z,50.89
2022-10-02T01:48:23.197Z,47.12
2022-10-02T01:49:23.249Z,47.03
2022-10-02T01:50:23.178Z,47.58
2022-10-02T01:51:23.165Z,47.29
2022-10-02T01:52:23.167Z,48.87
2022-10-02T01:53:23.198Z,47.01
2022-10-02T01:54:23.173Z,47.00
2022-10-02T01:55:23.139Z,48.07
2022-10-02T01:56:23.134Z,46.97
2022-10-02T01:57:23.116Z,47.48
2022-10-02T01:58:23.123Z,47.30
2022-10-02T01:59:23.154Z,49.81
2022-10-02T02:00:23.146Z,47.45
2022-10-02T02:01:23.154Z,49.14
2022-10-02T02:02:23.186Z,48.56
2022-10-02T02:03:23.095Z,47.01
2022-10-02T02:04:23.105Z,48.23
2022-10-02T02:05:23.188Z,48.26
2022-10-02T02:06:23.113Z,47.89
2022-10-02T02:07:23.069Z,46.99
2022-10-02T02:08:23.087Z,47.04
2022-10-02T02:09:23.060Z,47.36
2022-10-02T02:10:23.065Z,47.49
2022-10-02T02:11:23.075Z,47.24
2022-10-02T02:12:23.064Z,48.55
2022-10-02T02:13:23.040Z,47.07
2022-10-02T02:14:23.077Z,47.07
2022-10-02T02:15:23.048Z,48.11
2022-10-02T02:16:23.111Z,47.09
2022-10-02T02:17:23.089Z,47.07
2022-10-02T02:18:23.016Z,47.16
2022-10-02T02:19:23.014Z,50.49
2022-10-02T02:20:23.019Z,47.36
2022-10-02T02:21:23.006Z,48.95
2022-10-02T02:22:23.027Z,47.13
2022-10-02T02:23:23.048Z,47.15
2022-10-02T02:24:22.993Z,47.11
2022-10-02T02:25:23.001Z,47.09
2022-10-02T02:26:22.975Z,47.22
2022-10-02T02:27:23.017Z,47.59
2022-10-02T02:28:23.002Z,47.10
2022-10-02T02:29:22.971Z,47.44
2022-10-02T02:30:22.966Z,47.27
2022-10-02T02:31:23.015Z,47.91
2022-10-02T02:32:22.971Z,48.74
2022-10-02T02:33:23.941Z,48.41
2022-10-02T02:34:22.952Z,48.02
2022-10-02T02:35:22.938Z,47.16
2022-10-02T02:36:22.930Z,47.67
2022-10-02T02:37:22.941Z,47.22
2022-10-02T02:38:22.897Z,51.61
2022-10-02T02:39:23.155Z,48.22
2022-10-02T02:40:22.998Z,47.97
2022-10-02T02:41:22.889Z,47.10
2022-10-02T02:42:26.054Z,48.04
2022-10-02T02:43:23.899Z,47.28
2022-10-02T02:44:22.878Z,47.39
2022-10-02T02:45:22.903Z,47.08
2022-10-02T02:46:22.854Z,46.99
2022-10-02T02:47:22.853Z,47.10
2022-10-02T02:48:22.853Z,48.14
2022-10-02T02:49:22.849Z,47.20
2022-10-02T02:50:22.855Z,49.01
2022-10-02T02:51:22.838Z,47.19
2022-10-02T02:52:22.836Z,47.13
2022-10-02T02:53:22.839Z,47.06
2022-10-02T02:54:22.841Z,47.08
2022-10-02T02:55:22.834Z,47.17
2022-10-02T02:56:22.813Z,47.14
2022-10-02T02:57:22.795Z,47.10
2022-10-02T02:58:22.802Z,49.30
2022-10-02T02:59:22.811Z,49.29
2022-10-02T03:00:22.828Z,48.13
2022-10-02T03:01:22.862Z,49.76
2022-10-02T03:02:22.846Z,47.22
2022-10-02T03:03:22.772Z,47.94
2022-10-02T03:04:22.842Z,47.96
2022-10-02T03:05:22.797Z,48.14
2022-10-02T03:06:22.769Z,49.28
2022-10-02T03:07:22.772Z,47.94
2022-10-02T03:08:22.772Z,47.62
2022-10-02T03:09:22.766Z,47.80
2022-10-02T03:10:22.761Z,47.18
2022-10-02T03:11:22.756Z,48.05
2022-10-02T03:12:22.729Z,47.28
2022-10-02T03:13:23.019Z,47.73
2022-10-02T03:14:22.745Z,47.18
2022-10-02T03:15:22.720Z,47.14
2022-10-02T03:16:22.786Z,47.26
2022-10-02T03:17:22.747Z,47.15
2022-10-02T03:18:22.726Z,47.17
2022-10-02T03:19:22.690Z,47.14
2022-10-02T03:20:22.694Z,47.20
2022-10-02T03:21:22.698Z,48.52
2022-10-02T03:22:22.726Z,47.46
2022-10-02T03:23:22.717Z,54.15
2022-10-02T03:24:22.676Z,49.06
2022-10-02T03:25:22.684Z,48.40
2022-10-02T03:26:22.665Z,48.59
2022-10-02T03:27:22.678Z,47.80
2022-10-02T03:28:37.614Z,48.94
2022-10-02T03:29:24.680Z,47.17
2022-10-02T03:30:22.653Z,50.03
2022-10-02T03:31:22.747Z,48.19
2022-10-02T03:32:22.639Z,48.25
2022-10-02T03:33:22.622Z,49.08
2022-10-02T03:34:22.655Z,47.77
2022-10-02T03:35:22.623Z,47.39
2022-10-02T03:36:22.609Z,47.41
2022-10-02T03:37:22.614Z,48.29
2022-10-02T03:38:22.615Z,47.79
2022-10-02T03:39:25.515Z,47.25
2022-10-02T03:40:23.596Z,48.06
2022-10-02T03:41:22.598Z,49.79
2022-10-02T03:42:22.854Z,48.12
2022-10-02T03:43:22.590Z,47.35
2022-10-02T03:44:22.568Z,47.01
2022-10-02T03:45:46.157Z,46.99
2022-10-02T03:46:24.597Z,47.31
2022-10-02T03:47:22.556Z,48.51
2022-10-02T03:48:22.582Z,50.48
2022-10-02T03:49:22.564Z,48.01
2022-10-02T03:50:22.577Z,47.09
2022-10-02T03:51:22.568Z,49.80
2022-10-02T03:52:22.556Z,49.92
2022-10-02T03:53:22.541Z,47.72
2022-10-02T03:54:22.511Z,49.31
2022-10-02T03:55:22.536Z,49.01
2022-10-02T03:56:22.518Z,47.01
2022-10-02T03:57:22.489Z,47.41
2022-10-02T03:58:22.485Z,48.33
2022-10-02T03:59:22.477Z,48.20
2022-10-02T04:00:23.493Z,48.67
2022-10-02T04:01:22.558Z,47.61
2022-10-02T04:02:22.490Z,47.07
2022-10-02T04:03:22.525Z,48.70
2022-10-02T04:04:22.473Z,47.09
2022-10-02T04:05:22.473Z,47.64
2022-10-02T04:06:22.441Z,47.59
2022-10-02T04:07:22.476Z,54.45
2022-10-02T04:08:22.484Z,48.72
2022-10-02T04:09:23.400Z,49.93
2022-10-02T04:10:22.426Z,47.12
2022-10-02T04:11:22.437Z,47.79
2022-10-02T04:12:22.441Z,48.75
2022-10-02T04:13:22.441Z,48.31
2022-10-02T04:14:22.400Z,48.98
2022-10-02T04:15:22.407Z,47.62
2022-10-02T04:16:22.513Z,47.50
2022-10-02T04:17:22.399Z,47.52
2022-10-02T04:18:22.374Z,48.13
2022-10-02T04:19:22.406Z,47.40
2022-10-02T04:20:22.364Z,47.64
2022-10-02T04:21:23.356Z,48.32
2022-10-02T04:22:22.347Z,48.30
2022-10-02T04:23:22.368Z,48.48
2022-10-02T04:24:22.348Z,47.01
2022-10-02T04:25:22.337Z,49.49
2022-10-02T04:26:22.344Z,50.22
2022-10-02T04:27:22.324Z,51.00
2022-10-02T04:28:22.400Z,51.01
2022-10-02T04:29:22.343Z,47.54
2022-10-02T04:30:22.316Z,48.98
2022-10-02T04:31:22.344Z,47.83
2022-10-02T04:32:22.903Z,47.94
2022-10-02T04:33:22.385Z,51.46
2022-10-02T04:34:22.306Z,49.43
2022-10-02T04:35:22.285Z,49.65
2022-10-02T04:36:22.274Z,47.10
2022-10-02T04:37:22.252Z,46.97
2022-10-02T04:38:22.260Z,47.06
2022-10-02T04:39:22.277Z,47.01
2022-10-02T04:40:22.283Z,47.04
2022-10-02T04:41:22.396Z,49.08
2022-10-02T04:42:22.230Z,48.92
2022-10-02T04:43:22.220Z,48.77
2022-10-02T04:44:22.212Z,49.19
2022-10-02T04:45:22.290Z,48.10
2022-10-02T04:46:22.202Z,47.96
2022-10-02T04:47:22.189Z,47.40
2022-10-02T04:48:22.189Z,47.20
2022-10-02T04:49:22.203Z,49.01
2022-10-02T04:50:22.176Z,50.43
2022-10-02T04:51:22.178Z,48.93
2022-10-02T04:52:22.224Z,51.14
2022-10-02T04:53:22.166Z,50.97
2022-10-02T04:54:22.171Z,49.26
2022-10-02T04:55:22.156Z,49.12
2022-10-02T04:56:22.138Z,50.03
2022-10-02T04:57:22.158Z,49.36
2022-10-02T04:58:22.127Z,48.77
2022-10-02T04:59:22.116Z,48.62
2022-10-02T05:00:22.127Z,50.88
2022-10-02T05:01:22.212Z,49.75
2022-10-02T05:02:22.159Z,50.92
2022-10-02T05:03:22.119Z,48.87
2022-10-02T05:04:22.107Z,48.81
2022-10-02T05:05:22.095Z,47.71
2022-10-02T05:06:22.106Z,47.16
2022-10-02T05:07:22.067Z,48.11
2022-10-02T05:08:22.112Z,50.54
2022-10-02T05:09:24.818Z,49.13
2022-10-02T05:10:23.059Z,48.34
2022-10-02T05:11:22.055Z,47.09
2022-10-02T05:12:22.156Z,47.13
2022-10-02T05:13:22.072Z,49.96
2022-10-02T05:14:22.066Z,50.72
2022-10-02T05:15:22.041Z,48.06
2022-10-02T05:16:22.120Z,48.28
2022-10-02T05:17:22.023Z,49.05
2022-10-02T05:18:21.999Z,49.36
2022-10-02T05:19:22.003Z,49.73
2022-10-02T05:20:22.087Z,52.30
2022-10-02T05:21:21.992Z,50.17
2022-10-02T05:22:22.001Z,49.75
2022-10-02T05:23:21.997Z,51.00
2022-10-02T05:24:21.998Z,49.00
2022-10-02T05:25:22.005Z,54.56
2022-10-02T05:26:21.963Z,50.52
2022-10-02T05:27:21.972Z,48.67
2022-10-02T05:28:22.019Z,48.60
2022-10-02T05:29:21.954Z,50.18
2022-10-02T05:30:21.984Z,49.64
2022-10-02T05:31:21.963Z,52.37
2022-10-02T05:32:21.953Z,49.67
2022-10-02T05:33:21.936Z,50.26
2022-10-02T05:34:21.936Z,52.86
2022-10-02T05:35:21.951Z,48.49
2022-10-02T05:36:21.949Z,47.46
2022-10-02T05:37:21.905Z,49.66
2022-10-02T05:38:21.894Z,50.49
2022-10-02T05:39:21.891Z,50.75
2022-10-02T05:40:21.896Z,49.57
2022-10-02T05:41:21.919Z,49.06
2022-10-02T05:42:21.896Z,50.84
2022-10-02T05:43:21.886Z,47.63
2022-10-02T05:44:21.863Z,49.65
2022-10-02T05:45:21.858Z,54.59
2022-10-02T05:46:21.896Z,51.55
2022-10-02T05:47:21.875Z,51.37
2022-10-02T05:48:21.847Z,47.62
2022-10-02T05:49:21.861Z,47.68
2022-10-02T05:50:21.859Z,47.87
2022-10-02T05:51:21.827Z,50.02
2022-10-02T05:52:21.862Z,47.57
2022-10-02T05:53:21.822Z,47.43
2022-10-02T05:54:21.805Z,47.96
2022-10-02T05:55:21.803Z,48.41
2022-10-02T05:56:21.807Z,48.15
2022-10-02T05:57:21.803Z,49.73
2022-10-02T05:58:21.807Z,49.17
2022-10-02T05:59:21.794Z,50.09
2022-10-02T06:00:21.779Z,52.53
2022-10-02T06:01:21.867Z,50.95
2022-10-02T06:02:21.794Z,57.38
2022-10-02T06:03:22.018Z,56.99
2022-10-02T06:04:21.759Z,56.11
2022-10-02T06:05:21.759Z,49.99
2022-10-02T06:06:21.751Z,47.98
2022-10-02T06:07:21.721Z,49.80
2022-10-02T06:08:21.751Z,51.81
2022-10-02T06:09:21.737Z,51.65
2022-10-02T06:10:21.710Z,50.21
2022-10-02T06:11:21.705Z,51.30
2022-10-02T06:12:21.691Z,50.00
2022-10-02T06:13:21.720Z,48.30
2022-10-02T06:14:21.672Z,51.65
2022-10-02T06:15:21.683Z,50.04
2022-10-02T06:16:21.715Z,49.66
2022-10-02T06:17:21.663Z,50.64
2022-10-02T06:18:21.713Z,51.95
2022-10-02T06:19:21.644Z,49.75
2022-10-02T06:20:21.673Z,50.56
2022-10-02T06:21:21.685Z,50.01
2022-10-02T06:22:22.634Z,51.74
2022-10-02T06:23:21.645Z,48.76
2022-10-02T06:24:21.657Z,52.92
2022-10-02T06:25:21.615Z,50.99
2022-10-02T06:26:21.613Z,49.75
2022-10-02T06:27:21.612Z,50.51
2022-10-02T06:28:21.616Z,49.54
2022-10-02T06:29:26.306Z,50.44
2022-10-02T06:30:23.622Z,52.74
2022-10-02T06:31:21.697Z,52.26
2022-10-02T06:32:21.603Z,51.08
2022-10-02T06:33:21.612Z,52.88
2022-10-02T06:34:21.562Z,49.86
2022-10-02T06:35:21.637Z,52.04
2022-10-02T06:36:21.541Z,49.27
2022-10-02T06:37:21.547Z,50.62
2022-10-02T06:38:21.557Z,50.38
2022-10-02T06:39:21.539Z,50.52
2022-10-02T06:40:21.543Z,54.69
2022-10-02T06:41:21.506Z,53.72
2022-10-02T06:42:21.667Z,52.00
2022-10-02T06:43:21.514Z,49.03
2022-10-02T06:44:21.496Z,53.40
2022-10-02T06:45:21.500Z,51.90
2022-10-02T06:46:21.500Z,55.37
2022-10-02T06:47:21.531Z,50.29
2022-10-02T06:48:21.499Z,49.82
2022-10-02T06:49:21.463Z,51.85
2022-10-02T06:50:21.469Z,48.21
2022-10-02T06:51:21.444Z,48.07
2022-10-02T06:52:21.458Z,51.22
2022-10-02T06:53:21.498Z,51.59
2022-10-02T06:54:21.442Z,56.46
2022-10-02T06:55:21.413Z,49.79
2022-10-02T06:56:21.422Z,51.12
2022-10-02T06:57:21.421Z,51.05
2022-10-02T06:58:21.431Z,53.81
2022-10-02T06:59:21.412Z,53.80
2022-10-02T07:00:21.404Z,50.06
2022-10-02T07:01:21.453Z,52.27
2022-10-02T07:02:21.446Z,50.56
2022-10-02T07:03:21.396Z,51.09
2022-10-02T07:04:21.361Z,50.85
2022-10-02T07:05:21.360Z,51.30
2022-10-02T07:06:21.368Z,51.64
2022-10-02T07:07:21.340Z,52.65
2022-10-02T07:08:21.367Z,49.86
2022-10-02T07:09:21.337Z,54.83
2022-10-02T07:10:21.317Z,48.98
2022-10-02T07:11:22.327Z,50.40
2022-10-02T07:12:21.312Z,52.11
2022-10-02T07:13:21.356Z,51.41
2022-10-02T07:14:21.304Z,51.98
2022-10-02T07:15:21.317Z,53.08
2022-10-02T07:16:21.304Z,51.85
2022-10-02T07:17:22.453Z,53.81
2022-10-02T07:18:22.363Z,55.27
2022-10-02T07:19:21.392Z,53.31
2022-10-02T07:20:21.257Z,55.09
2022-10-02T07:21:21.323Z,54.49
2022-10-02T07:22:43.493Z,53.51
2022-10-02T07:23:23.268Z,53.98
2022-10-02T07:24:21.298Z,55.60
2022-10-02T07:25:21.253Z,55.44
2022-10-02T07:26:21.242Z,52.06
2022-10-02T07:27:21.209Z,53.39
2022-10-02T07:28:21.267Z,51.02
2022-10-02T07:29:21.190Z,53.77
2022-10-02T07:30:21.224Z,50.77
2022-10-02T07:31:21.213Z,56.17
2022-10-02T07:32:21.176Z,52.76
2022-10-02T07:33:21.179Z,54.11
2022-10-02T07:34:21.277Z,53.10
2022-10-02T07:35:21.189Z,54.74
2022-10-02T07:36:21.141Z,53.27
2022-10-02T07:37:21.155Z,50.70
2022-10-02T07:38:21.127Z,51.89
2022-10-02T07:39:21.248Z,53.99
2022-10-02T07:40:21.189Z,56.36
2022-10-02T07:41:21.107Z,51.77
2022-10-02T07:42:21.131Z,53.35
2022-10-02T07:43:21.111Z,50.74
2022-10-02T07:44:21.091Z,51.75
2022-10-02T07:45:21.221Z,51.94
2022-10-02T07:46:21.076Z,52.42
2022-10-02T07:47:21.094Z,51.72
2022-10-02T07:48:21.108Z,49.94
2022-10-02T07:49:21.056Z,55.13
2022-10-02T07:50:21.040Z,53.37
2022-10-02T07:51:21.114Z,53.24
2022-10-02T07:52:22.066Z,50.71
2022-10-02T07:53:21.039Z,52.48
2022-10-02T07:54:21.015Z,54.04
2022-10-02T07:55:21.014Z,52.76
2022-10-02T07:56:21.016Z,53.77
2022-10-02T07:57:21.027Z,52.26
2022-10-02T07:58:20.991Z,50.25
2022-10-02T07:59:21.979Z,53.46
2022-10-02T08:00:20.999Z,53.07
2022-10-02T08:01:20.965Z,52.71
2022-10-02T08:02:21.050Z,53.94
2022-10-02T08:03:21.002Z,54.04
2022-10-02T08:04:20.951Z,51.03
2022-10-02T08:05:20.950Z,50.93
2022-10-02T08:06:20.980Z,50.02
2022-10-02T08:07:20.938Z,52.39
2022-10-02T08:08:20.929Z,53.76
2022-10-02T08:09:20.942Z,51.95
2022-10-02T08:10:20.910Z,52.41
2022-10-02T08:11:20.905Z,49.47
2022-10-02T08:12:20.902Z,53.79
2022-10-02T08:13:20.894Z,54.57
2022-10-02T08:14:20.919Z,50.74
2022-10-02T08:15:20.873Z,51.10
2022-10-02T08:16:20.955Z,52.03
2022-10-02T08:17:20.879Z,53.71
2022-10-02T08:18:34.284Z,52.49
2022-10-02T08:19:22.870Z,49.35
2022-10-02T08:20:20.842Z,48.87
2022-10-02T08:21:20.827Z,52.21
2022-10-02T08:22:20.848Z,52.00
2022-10-02T08:23:20.825Z,52.51
2022-10-02T08:24:20.807Z,52.46
2022-10-02T08:25:20.808Z,51.16
2022-10-02T08:26:20.791Z,51.64
2022-10-02T08:27:20.839Z,50.91
2022-10-02T08:28:20.815Z,53.19
2022-10-02T08:29:20.780Z,53.24
2022-10-02T08:30:20.762Z,51.27
2022-10-02T08:31:20.844Z,52.15
2022-10-02T08:32:20.755Z,51.50
2022-10-02T08:33:20.762Z,51.55
2022-10-02T08:34:20.769Z,54.08
2022-10-02T08:35:20.759Z,53.33
2022-10-02T08:36:20.741Z,50.94
2022-10-02T08:37:20.717Z,54.10
2022-10-02T08:38:20.690Z,52.09
2022-10-02T08:39:20.690Z,51.86
2022-10-02T08:40:20.687Z,52.61
2022-10-02T08:41:20.710Z,51.71
2022-10-02T08:42:20.686Z,52.73
2022-10-02T08:43:20.686Z,52.81
2022-10-02T08:44:21.663Z,51.27
2022-10-02T08:45:20.652Z,53.76
2022-10-02T08:46:20.657Z,55.64
2022-10-02T08:47:20.639Z,52.96
2022-10-02T08:48:20.661Z,53.29
2022-10-02T08:49:20.620Z,52.83
2022-10-02T08:50:20.621Z,54.27
2022-10-02T08:51:20.601Z,50.39
2022-10-02T08:52:20.640Z,51.35
2022-10-02T08:53:20.686Z,52.17
2022-10-02T08:54:20.600Z,55.81
2022-10-02T08:55:20.571Z,52.05
2022-10-02T08:56:20.612Z,51.36
2022-10-02T08:57:20.585Z,52.62
2022-10-02T08:58:20.576Z,52.14
2022-10-02T08:59:20.547Z,51.86
2022-10-02T09:00:20.534Z,52.12
2022-10-02T09:01:20.628Z,53.56
2022-10-02T09:02:20.544Z,57.71
2022-10-02T09:03:20.532Z,57.12
2022-10-02T09:04:21.541Z,54.93
2022-10-02T09:05:20.502Z,53.02
2022-10-02T09:06:20.503Z,51.53
2022-10-02T09:07:22.883Z,50.48
2022-10-02T09:08:21.480Z,52.97
2022-10-02T09:09:20.461Z,52.04
2022-10-02T09:10:20.507Z,51.27
2022-10-02T09:11:20.459Z,50.04
2022-10-02T09:12:20.451Z,51.66
2022-10-02T09:13:20.939Z,51.85
2022-10-02T09:14:20.435Z,53.84
2022-10-02T09:15:20.439Z,53.56
2022-10-02T09:16:20.466Z,51.50
2022-10-02T09:17:20.438Z,50.97
2022-10-02T09:18:20.408Z,49.35
2022-10-02T09:19:20.412Z,50.04
2022-10-02T09:20:20.395Z,52.62
2022-10-02T09:21:20.529Z,53.31
2022-10-02T09:22:20.403Z,50.75
2022-10-02T09:23:20.388Z,52.20
2022-10-02T09:24:20.352Z,50.39
2022-10-02T09:25:20.362Z,52.09
2022-10-02T09:26:20.378Z,51.87
2022-10-02T09:27:20.322Z,50.74
2022-10-02T09:28:20.352Z,51.83
2022-10-02T09:29:20.317Z,54.11
2022-10-02T09:30:20.324Z,52.62
2022-10-02T09:31:20.401Z,49.14
2022-10-02T09:32:20.305Z,50.00
2022-10-02T09:33:20.415Z,52.83
2022-10-02T09:34:20.316Z,50.28
2022-10-02T09:35:20.289Z,53.81
2022-10-02T09:36:20.266Z,52.53
2022-10-02T09:37:20.322Z,50.89
2022-10-02T09:38:20.393Z,50.58
2022-10-02T09:39:20.236Z,50.48
2022-10-02T09:40:20.322Z,53.55
2022-10-02T09:41:20.234Z,52.26
2022-10-02T09:42:20.212Z,53.82
2022-10-02T09:43:20.232Z,50.63
2022-10-02T09:44:20.211Z,52.63
2022-10-02T09:45:20.233Z,52.27
2022-10-02T09:46:20.246Z,50.60
2022-10-02T09:47:20.190Z,51.85
2022-10-02T09:48:20.207Z,52.40
2022-10-02T09:49:20.212Z,53.01
2022-10-02T09:50:20.202Z,55.28
2022-10-02T09:51:20.166Z,54.11
2022-10-02T09:52:20.150Z,51.34
2022-10-02T09:53:20.267Z,50.87
2022-10-02T09:54:20.150Z,53.30
2022-10-02T09:55:20.130Z,51.09
2022-10-02T09:56:20.123Z,53.70
2022-10-02T09:57:20.130Z,53.19
2022-10-02T09:58:20.102Z,51.07
2022-10-02T09:59:20.096Z,55.43
2022-10-02T10:00:20.119Z,53.22
2022-10-02T10:01:20.162Z,54.16
2022-10-02T10:02:24.800Z,51.90
2022-10-02T10:03:22.127Z,52.87
2022-10-02T10:04:20.052Z,51.88
2022-10-02T10:05:20.052Z,52.72
2022-10-02T10:06:20.078Z,51.60
2022-10-02T10:07:20.104Z,53.97
2022-10-02T10:08:20.025Z,53.50
2022-10-02T10:09:20.027Z,54.03
2022-10-02T10:10:20.009Z,54.75
2022-10-02T10:11:20.001Z,52.12
2022-10-02T10:12:20.000Z,53.63
2022-10-02T10:13:20.007Z,55.87
2022-10-02T10:14:21.017Z,51.05
2022-10-02T10:15:19.981Z,54.82
2022-10-02T10:16:20.008Z,56.27
2022-10-02T10:17:19.946Z,53.79
2022-10-02T10:18:19.997Z,54.22
2022-10-02T10:19:19.937Z,52.02
2022-10-02T10:20:19.960Z,52.06
2022-10-02T10:21:19.912Z,50.51
2022-10-02T10:22:19.912Z,52.59
2022-10-02T10:23:19.927Z,51.29
2022-10-02T10:24:20.908Z,53.33
2022-10-02T10:25:19.904Z,53.32
2022-10-02T10:26:19.882Z,52.17
2022-10-02T10:27:19.874Z,50.73
2022-10-02T10:28:19.949Z,51.95
2022-10-02T10:29:19.854Z,52.40
2022-10-02T10:30:19.905Z,55.27
2022-10-02T10:31:19.850Z,53.65
2022-10-02T10:32:19.854Z,52.54
2022-10-02T10:33:19.830Z,48.58
2022-10-02T10:34:19.842Z,52.29
2022-10-02T10:35:19.847Z,53.53
2022-10-02T10:36:19.849Z,53.10
2022-10-02T10:37:19.943Z,51.29
2022-10-02T10:38:19.815Z,52.62
2022-10-02T10:39:19.814Z,53.68
2022-10-02T10:40:19.783Z,52.96
2022-10-02T10:41:19.800Z,52.71
2022-10-02T10:42:19.769Z,52.46
2022-10-02T10:43:19.775Z,53.95
2022-10-02T10:44:19.750Z,51.09
2022-10-02T10:45:19.861Z,52.30
2022-10-02T10:46:19.869Z,49.74
2022-10-02T10:47:19.758Z,50.51
2022-10-02T10:48:19.740Z,49.90
2022-10-02T10:49:19.732Z,52.26
2022-10-02T10:50:19.721Z,52.44
2022-10-02T10:51:19.728Z,51.57
2022-10-02T10:52:19.730Z,48.29
2022-10-02T10:53:19.727Z,50.11
2022-10-02T10:54:19.700Z,49.47
2022-10-02T10:55:19.909Z,51.45
2022-10-02T10:56:19.729Z,52.60
2022-10-02T10:57:19.715Z,50.70
2022-10-02T10:58:19.702Z,51.93
2022-10-02T10:59:24.410Z,51.32
2022-10-02T11:00:21.711Z,51.81
2022-10-02T11:01:19.646Z,51.42
2022-10-02T11:02:19.714Z,50.88
2022-10-02T11:03:19.610Z,51.86
2022-10-02T11:04:19.654Z,51.18
2022-10-02T11:05:19.628Z,51.72
2022-10-02T11:06:19.584Z,53.46
2022-10-02T11:07:19.573Z,53.29
2022-10-02T11:08:19.566Z,50.77
2022-10-02T11:09:19.566Z,51.77
2022-10-02T11:10:19.587Z,53.46
2022-10-02T11:11:19.564Z,55.01
2022-10-02T11:12:19.544Z,53.97
2022-10-02T11:13:19.536Z,53.38
2022-10-02T11:14:19.544Z,52.74
2022-10-02T11:15:19.518Z,53.21
2022-10-02T11:16:19.590Z,51.15
2022-10-02T11:17:19.510Z,54.38
2022-10-02T11:18:19.498Z,51.59
2022-10-02T11:19:21.609Z,51.01
2022-10-02T11:20:20.504Z,49.46
2022-10-02T11:21:19.502Z,50.29
2022-10-02T11:22:19.461Z,54.98
2022-10-02T11:23:19.507Z,53.97
2022-10-02T11:24:19.466Z,55.63
2022-10-02T11:25:19.447Z,55.98
2022-10-02T11:26:19.520Z,55.35
2022-10-02T11:27:19.919Z,54.12
2022-10-02T11:28:19.507Z,50.93
2022-10-02T11:29:19.427Z,51.02
2022-10-02T11:30:19.404Z,50.92
2022-10-02T11:31:19.465Z,51.88
2022-10-02T11:32:19.482Z,51.72
2022-10-02T11:33:19.422Z,54.34
2022-10-02T11:34:19.429Z,53.36
2022-10-02T11:35:19.407Z,51.93
2022-10-02T11:36:19.390Z,50.82
2022-10-02T11:37:19.367Z,47.80
2022-10-02T11:38:19.362Z,53.37
2022-10-02T11:39:19.341Z,50.36
2022-10-02T11:40:19.331Z,50.93
2022-10-02T11:41:19.320Z,53.97
2022-10-02T11:42:19.396Z,52.40
2022-10-02T11:43:19.374Z,52.54
2022-10-02T11:44:19.294Z,51.40
2022-10-02T11:45:19.305Z,52.26
2022-10-02T11:46:19.331Z,52.54
2022-10-02T11:47:19.300Z,51.11
2022-10-02T11:48:19.265Z,52.18
2022-10-02T11:49:19.279Z,52.15
2022-10-02T11:50:20.056Z,51.75
2022-10-02T11:51:19.258Z,52.81
2022-10-02T11:52:19.261Z,51.21
2022-10-02T11:53:19.248Z,53.11
2022-10-02T11:54:19.224Z,52.16
2022-10-02T11:55:19.233Z,51.26
2022-10-02T11:56:19.232Z,51.86
2022-10-02T11:57:19.231Z,52.15
2022-10-02T11:58:19.213Z,49.71
2022-10-02T11:59:19.193Z,52.69
2022-10-02T12:00:19.186Z,50.11
2022-10-02T12:01:19.298Z,51.56
2022-10-02T12:02:19.342Z,53.76
2022-10-02T12:03:19.210Z,52.97
2022-10-02T12:04:19.186Z,52.76
2022-10-02T12:05:19.174Z,53.41
2022-10-02T12:06:19.165Z,53.05
2022-10-02T12:07:19.163Z,56.15
2022-10-02T12:08:19.151Z,54.23
2022-10-02T12:09:19.166Z,53.88
2022-10-02T12:10:19.144Z,51.53
2022-10-02T12:11:19.120Z,50.53
2022-10-02T12:12:19.109Z,52.49
2022-10-02T12:13:19.121Z,54.53
2022-10-02T12:14:19.141Z,55.09
2022-10-02T12:15:19.097Z,55.00
2022-10-02T12:16:19.193Z,52.90
2022-10-02T12:17:19.090Z,51.89
2022-10-02T12:18:21.823Z,53.31
2022-10-02T12:19:20.091Z,53.50
2022-10-02T12:20:19.064Z,54.06
2022-10-02T12:21:19.059Z,50.74
2022-10-02T12:22:19.077Z,52.35
2022-10-02T12:23:19.072Z,50.57
2022-10-02T12:24:19.104Z,53.64
2022-10-02T12:25:19.033Z,50.37
2022-10-02T12:26:19.057Z,50.58
2022-10-02T12:27:19.012Z,48.24
2022-10-02T12:28:19.080Z,49.89
2022-10-02T12:29:19.061Z,51.35
2022-10-02T12:30:18.990Z,51.98
2022-10-02T12:31:19.068Z,51.54
2022-10-02T12:32:19.005Z,51.06
2022-10-02T12:33:19.000Z,52.13
2022-10-02T12:34:18.955Z,48.74
2022-10-02T12:35:18.967Z,50.89
2022-10-02T12:36:18.968Z,52.86
2022-10-02T12:37:18.958Z,52.53
2022-10-02T12:38:18.965Z,50.27
2022-10-02T12:39:22.033Z,49.72
2022-10-02T12:40:19.972Z,51.35
2022-10-02T12:41:18.913Z,52.76
2022-10-02T12:42:18.921Z,52.31
2022-10-02T12:43:18.952Z,54.21
2022-10-02T12:44:18.899Z,49.26
2022-10-02T12:45:18.903Z,50.64
2022-10-02T12:46:18.933Z,50.83
2022-10-02T12:47:18.909Z,51.56
2022-10-02T12:48:18.875Z,51.85
2022-10-02T12:49:18.888Z,51.00
2022-10-02T12:50:18.872Z,51.81
2022-10-02T12:51:18.858Z,51.21
2022-10-02T12:52:18.880Z,52.45